createdAt,value
2023-06-30T00:01:50.473Z,17.07
2023-06-30T00:04:23.859Z,17.01
2023-06-30T00:06:51.826Z,16.89
2023-06-30T00:09:22.123Z,16.73
2023-06-30T00:11:53.956Z,16.54
2023-06-30T00:14:22.127Z,16.46
2023-06-30T00:16:50.920Z,16.47
2023-06-30T00:19:19.819Z,16.50
2023-06-30T00:21:46.930Z,16.50
2023-06-30T00:24:14.381Z,16.50
2023-06-30T00:26:42.155Z,16.41
2023-06-30T00:29:10.338Z,16.33
2023-06-30T00:31:37.548Z,16.30
2023-06-30T00:34:04.636Z,16.24
2023-06-30T00:36:35.596Z,16.18
2023-06-30T00:39:04.085Z,16.06
2023-06-30T00:41:31.254Z,16.00
2023-06-30T00:43:59.407Z,16.05
2023-06-30T00:46:27.020Z,16.03
2023-06-30T00:48:56.219Z,15.95
2023-06-30T00:51:23.292Z,15.97
2023-06-30T00:53:50.299Z,15.94
2023-06-30T00:56:17.228Z,15.90
2023-06-30T00:58:45.527Z,15.89
2023-06-30T01:01:31.752Z,15.89
2023-06-30T01:04:39.601Z,15.92
2023-06-30T01:07:43.237Z,15.94
2023-06-30T01:10:24.106Z,15.95
2023-06-30T01:12:52.108Z,15.94
2023-06-30T01:15:20.045Z,15.88
2023-06-30T01:17:54.942Z,15.81
2023-06-30T01:20:22.737Z,15.80
2023-06-30T01:23:16.858Z,15.85
2023-06-30T01:25:47.251Z,15.84
2023-06-30T01:28:15.769Z,15.84
2023-06-30T01:30:43.046Z,15.86
2023-06-30T01:33:11.864Z,15.85
2023-06-30T01:35:38.834Z,15.84
2023-06-30T01:38:06.046Z,15.83
2023-06-30T01:40:33.500Z,15.81
2023-06-30T01:43:00.595Z,15.76
2023-06-30T01:45:29.916Z,15.75
2023-06-30T01:47:58.262Z,15.77
2023-06-30T01:50:27.020Z,15.84
2023-06-30T01:52:53.990Z,15.82
2023-06-30T01:55:22.073Z,15.81
2023-06-30T01:57:51.744Z,15.85
2023-06-30T02:00:19.310Z,15.90
2023-06-30T02:02:51.149Z,15.88
2023-06-30T02:05:18.326Z,15.88
2023-06-30T02:07:45.252Z,15.83
2023-06-30T02:10:12.359Z,15.81
2023-06-30T02:12:39.404Z,15.84
2023-06-30T02:15:07.823Z,15.86
2023-06-30T02:17:34.921Z,15.82
2023-06-30T02:20:04.313Z,15.80
2023-06-30T02:22:31.285Z,15.76
2023-06-30T02:24:58.420Z,15.70
2023-06-30T02:27:25.925Z,15.59
2023-06-30T02:29:52.945Z,15.54
2023-06-30T02:32:20.483Z,15.48
2023-06-30T02:34:47.533Z,15.43
2023-06-30T02:37:14.565Z,15.40
2023-06-30T02:39:42.457Z,15.38
2023-06-30T02:42:09.510Z,15.36
2023-06-30T02:44:36.497Z,15.33
2023-06-30T02:47:03.897Z,15.32
2023-06-30T02:49:32.513Z,15.30
2023-06-30T02:52:01.157Z,15.31
2023-06-30T02:54:28.325Z,15.33
2023-06-30T02:56:55.648Z,15.37
2023-06-30T02:59:24.056Z,15.36
2023-06-30T03:01:51.589Z,15.37
2023-06-30T03:04:18.600Z,15.34
2023-06-30T03:06:45.612Z,15.31
2023-06-30T03:09:14.517Z,15.30
2023-06-30T03:11:41.718Z,15.34
2023-06-30T03:14:08.818Z,15.34
2023-06-30T03:16:42.962Z,15.39
2023-06-30T03:19:10.838Z,15.44
2023-06-30T03:21:38.553Z,15.44
2023-06-30T03:24:05.753Z,15.46
2023-06-30T03:26:32.750Z,15.45
2023-06-30T03:29:02.025Z,15.45
2023-06-30T03:31:30.012Z,15.49
2023-06-30T03:33:57.484Z,15.54
2023-06-30T03:36:24.423Z,15.59
2023-06-30T03:38:51.910Z,15.64
2023-06-30T03:41:19.058Z,15.65
2023-06-30T03:43:46.140Z,15.63
2023-06-30T03:46:13.517Z,15.66
2023-06-30T03:48:40.534Z,15.62
2023-06-30T03:51:09.145Z,15.58
2023-06-30T03:53:36.281Z,15.60
2023-06-30T03:56:06.568Z,15.64
2023-06-30T03:58:33.596Z,15.68
2023-06-30T04:01:00.632Z,15.69
2023-06-30T04:03:28.317Z,15.69
2023-06-30T04:05:55.598Z,15.73
2023-06-30T04:08:22.739Z,15.81
2023-06-30T04:10:49.835Z,15.88
2023-06-30T04:13:16.824Z,15.90
2023-06-30T04:15:44.352Z,15.94
2023-06-30T04:18:11.516Z,15.97
2023-06-30T04:20:38.990Z,16.05
2023-06-30T04:23:05.907Z,16.10
2023-06-30T04:25:32.901Z,16.16
2023-06-30T04:27:59.925Z,16.21
2023-06-30T04:30:26.855Z,16.29
2023-06-30T04:32:53.843Z,16.36
2023-06-30T04:35:26.638Z,16.45
2023-06-30T04:37:54.035Z,16.48
2023-06-30T04:40:21.201Z,16.55
2023-06-30T04:42:48.295Z,16.59
2023-06-30T04:45:16.477Z,16.63
2023-06-30T04:47:45.974Z,16.62
2023-06-30T04:50:13.067Z,16.66
2023-06-30T04:52:40.177Z,16.72
2023-06-30T04:55:07.720Z,16.84
2023-06-30T04:57:34.724Z,16.90
2023-06-30T05:00:01.854Z,16.93
2023-06-30T05:02:28.914Z,16.92
2023-06-30T05:04:55.951Z,16.96
2023-06-30T05:07:23.266Z,17.01
2023-06-30T05:09:50.429Z,16.98
2023-06-30T05:12:17.563Z,17.05
2023-06-30T05:14:44.549Z,17.16
2023-06-30T05:17:11.729Z,17.29
2023-06-30T05:19:39.003Z,17.40
2023-06-30T05:22:06.437Z,17.48
2023-06-30T05:24:34.641Z,17.43
2023-06-30T05:27:03.008Z,17.40
2023-06-30T05:29:32.367Z,17.43
2023-06-30T05:31:59.432Z,17.51
2023-06-30T05:34:26.949Z,17.54
2023-06-30T05:36:55.906Z,17.59
2023-06-30T05:39:23.837Z,17.61
2023-06-30T05:41:50.853Z,17.68
2023-06-30T05:44:18.045Z,17.75
2023-06-30T05:46:45.162Z,17.86
2023-06-30T05:49:12.773Z,17.99
2023-06-30T05:51:39.918Z,18.05
2023-06-30T05:54:07.250Z,18.12
2023-06-30T05:56:34.302Z,18.13
2023-06-30T05:59:01.332Z,18.17
2023-06-30T06:01:28.403Z,18.27
2023-06-30T06:03:56.499Z,18.33
2023-06-30T06:06:24.034Z,18.42
2023-06-30T06:08:51.410Z,18.44
2023-06-30T06:11:18.640Z,18.50
2023-06-30T06:13:45.746Z,18.62
2023-06-30T06:16:12.866Z,18.70
2023-06-30T06:18:39.957Z,18.82
2023-06-30T06:21:07.033Z,18.95
2023-06-30T06:23:34.092Z,19.04
2023-06-30T06:26:02.918Z,19.11
2023-06-30T06:28:30.969Z,19.14
2023-06-30T06:30:58.361Z,19.23
2023-06-30T06:33:25.623Z,19.21
2023-06-30T06:35:53.616Z,19.33
2023-06-30T06:38:21.264Z,19.31
2023-06-30T06:40:48.572Z,19.39
2023-06-30T06:43:16.522Z,19.55
2023-06-30T06:45:44.241Z,19.55
2023-06-30T06:48:38.464Z,19.62
2023-06-30T06:51:07.069Z,19.77
2023-06-30T06:53:35.487Z,20.05
2023-06-30T06:56:03.783Z,19.83
2023-06-30T06:58:33.001Z,19.83
2023-06-30T07:01:00.138Z,19.95
2023-06-30T07:03:27.490Z,20.04
2023-06-30T07:05:56.777Z,20.18
2023-06-30T07:08:23.909Z,20.27
2023-06-30T07:10:51.866Z,20.25
2023-06-30T07:13:20.452Z,20.29
2023-06-30T07:15:49.179Z,20.43
2023-06-30T07:18:19.870Z,20.55
2023-06-30T07:20:51.734Z,20.69
2023-06-30T07:23:19.268Z,20.77
2023-06-30T07:25:47.805Z,20.75
2023-06-30T07:28:16.146Z,20.85
2023-06-30T07:30:46.329Z,21.00
2023-06-30T07:33:14.142Z,21.12
2023-06-30T07:35:41.867Z,21.27
2023-06-30T07:38:09.185Z,21.28
2023-06-30T07:43:06.476Z,21.48
2023-06-30T07:45:33.950Z,21.61
2023-06-30T07:48:01.014Z,21.67
2023-06-30T07:50:28.770Z,21.73
2023-06-30T07:52:55.910Z,21.85
2023-06-30T07:57:50.227Z,22.04
2023-06-30T08:00:19.799Z,22.11
2023-06-30T08:02:48.166Z,22.17
2023-06-30T08:05:16.102Z,22.33
2023-06-30T08:07:49.214Z,22.38
2023-06-30T08:10:18.116Z,22.41
2023-06-30T08:12:45.391Z,22.53
2023-06-30T08:15:12.770Z,22.72
2023-06-30T08:17:50.882Z,22.85
2023-06-30T08:20:26.568Z,22.94
2023-06-30T08:22:55.061Z,23.06
2023-06-30T08:25:24.249Z,23.17
2023-06-30T08:27:51.641Z,23.16
2023-06-30T08:30:21.135Z,23.25
2023-06-30T08:32:51.081Z,23.34
2023-06-30T08:35:18.385Z,23.47
2023-06-30T08:37:46.214Z,23.54
2023-06-30T08:40:14.285Z,23.61
2023-06-30T08:42:45.760Z,23.69
2023-06-30T08:45:15.122Z,23.92
2023-06-30T08:47:42.340Z,24.06
2023-06-30T08:50:10.946Z,24.05
2023-06-30T08:52:38.170Z,24.14
2023-06-30T08:55:08.056Z,24.16
2023-06-30T08:57:36.453Z,24.20
2023-06-30T09:00:04.601Z,24.34
2023-06-30T09:02:31.981Z,24.43
2023-06-30T09:05:00.012Z,24.45
2023-06-30T09:07:27.667Z,24.48
2023-06-30T09:10:03.502Z,24.55
2023-06-30T09:12:30.847Z,24.71
2023-06-30T09:15:02.971Z,24.81
2023-06-30T09:17:31.902Z,24.97
2023-06-30T09:19:58.887Z,24.95
2023-06-30T09:22:53.719Z,25.12
2023-06-30T09:25:43.450Z,25.34
2023-06-30T09:28:13.553Z,25.48
2023-06-30T09:30:44.509Z,25.65
2023-06-30T09:33:14.528Z,25.66
2023-06-30T09:35:47.061Z,25.66
2023-06-30T09:38:18.711Z,25.94
2023-06-30T09:40:50.082Z,25.84
2023-06-30T09:43:18.992Z,25.82
2023-06-30T09:45:48.411Z,25.88
2023-06-30T09:48:16.241Z,25.90
2023-06-30T09:50:43.643Z,26.01
2023-06-30T09:53:10.868Z,26.02
2023-06-30T09:55:51.343Z,26.24
2023-06-30T09:58:19.084Z,26.58
2023-06-30T10:00:47.271Z,26.91
2023-06-30T10:03:20.998Z,27.28
2023-06-30T10:05:51.588Z,27.46
2023-06-30T10:08:21.178Z,27.61
2023-06-30T10:10:55.792Z,27.77
2023-06-30T10:13:23.435Z,27.31
2023-06-30T10:15:51.916Z,27.04
2023-06-30T10:18:19.752Z,27.10
2023-06-30T10:20:49.500Z,27.32
2023-06-30T10:23:20.404Z,27.42
2023-06-30T10:25:56.337Z,27.65
2023-06-30T10:28:23.637Z,27.85
2023-06-30T10:30:52.467Z,28.15
2023-06-30T10:33:20.251Z,28.47
2023-06-30T10:35:49.231Z,28.73
2023-06-30T10:38:16.504Z,29.14
2023-06-30T10:40:43.508Z,29.43
2023-06-30T10:43:11.513Z,29.00
2023-06-30T10:46:05.623Z,28.81
2023-06-30T10:48:33.071Z,28.98
2023-06-30T10:51:00.220Z,29.17
2023-06-30T10:53:28.375Z,29.73
2023-06-30T10:55:58.804Z,29.44
2023-06-30T10:58:26.008Z,29.44
2023-06-30T11:01:07.845Z,29.43
2023-06-30T11:04:20.254Z,29.77
2023-06-30T11:06:47.868Z,30.34
2023-06-30T11:09:15.170Z,30.57
2023-06-30T11:11:52.544Z,30.19
2023-06-30T11:14:35.512Z,30.43
2023-06-30T11:17:07.510Z,30.49
2023-06-30T11:19:40.463Z,30.41
2023-06-30T11:22:24.602Z,30.67
2023-06-30T11:24:52.025Z,30.56
2023-06-30T11:27:20.185Z,30.97
2023-06-30T11:29:50.151Z,31.22
2023-06-30T11:32:19.546Z,31.40
2023-06-30T11:34:47.378Z,31.84
2023-06-30T11:37:14.450Z,31.93
2023-06-30T11:39:41.646Z,32.05
2023-06-30T11:42:08.663Z,32.29
2023-06-30T11:44:38.470Z,32.39
2023-06-30T11:47:06.126Z,32.75
2023-06-30T11:49:39.764Z,32.87
2023-06-30T11:52:07.852Z,33.01
2023-06-30T11:54:35.390Z,33.38
2023-06-30T11:57:02.553Z,33.53
2023-06-30T11:59:29.672Z,33.35
2023-06-30T12:01:56.865Z,33.18
2023-06-30T12:04:37.112Z,33.25
2023-06-30T12:07:07.255Z,33.00
2023-06-30T12:09:35.554Z,32.52
2023-06-30T12:12:02.774Z,32.72
2023-06-30T12:14:30.113Z,32.83
2023-06-30T12:16:57.741Z,32.85
2023-06-30T12:19:27.230Z,32.89
2023-06-30T12:22:02.849Z,33.05
2023-06-30T12:24:33.900Z,32.58
2023-06-30T12:27:06.214Z,32.60
2023-06-30T12:29:35.210Z,32.92
2023-06-30T12:32:11.917Z,32.95
2023-06-30T12:34:39.984Z,33.16
2023-06-30T12:37:07.073Z,33.48
2023-06-30T12:39:34.090Z,33.91
2023-06-30T12:42:01.166Z,34.20
2023-06-30T12:44:28.213Z,33.83
2023-06-30T12:47:09.621Z,33.43
2023-06-30T12:49:38.874Z,33.44
2023-06-30T12:52:06.412Z,33.79
2023-06-30T12:54:33.913Z,34.01
2023-06-30T12:57:01.166Z,34.23
2023-06-30T12:59:28.237Z,34.55
2023-06-30T13:01:55.494Z,34.80
2023-06-30T13:04:22.726Z,35.20
2023-06-30T13:06:50.095Z,35.37
2023-06-30T13:09:17.155Z,35.35
2023-06-30T13:11:44.258Z,35.44
2023-06-30T13:14:11.701Z,35.64
2023-06-30T13:16:38.716Z,36.01
2023-06-30T13:19:05.753Z,36.34
2023-06-30T13:21:32.849Z,36.83
2023-06-30T13:24:03.056Z,37.02
2023-06-30T13:26:30.195Z,37.05
2023-06-30T13:28:57.186Z,36.66
2023-06-30T13:31:24.378Z,36.53
2023-06-30T13:33:51.504Z,36.59
2023-06-30T13:36:18.423Z,36.75
2023-06-30T13:38:45.425Z,36.89
2023-06-30T13:41:13.381Z,36.79
2023-06-30T13:43:40.874Z,36.80
2023-06-30T13:46:07.929Z,36.88
2023-06-30T13:48:36.548Z,37.13
2023-06-30T13:51:03.674Z,37.28
2023-06-30T13:53:30.804Z,37.50
2023-06-30T13:55:59.762Z,37.66
2023-06-30T13:58:26.967Z,37.55
2023-06-30T14:00:53.918Z,37.76
2023-06-30T14:03:20.993Z,37.69
2023-06-30T14:05:51.281Z,37.62
2023-06-30T14:08:19.324Z,37.56
2023-06-30T14:10:46.523Z,37.34
2023-06-30T14:13:13.817Z,37.42
2023-06-30T14:15:40.795Z,37.50
2023-06-30T14:18:07.881Z,37.11
2023-06-30T14:20:35.008Z,37.04
2023-06-30T14:23:01.942Z,37.35
2023-06-30T14:25:28.910Z,37.76
2023-06-30T14:27:55.996Z,37.82
2023-06-30T14:30:29.613Z,37.54
2023-06-30T14:32:57.027Z,37.50
2023-06-30T14:35:24.094Z,37.32
2023-06-30T14:37:51.163Z,37.41
2023-06-30T14:40:18.175Z,37.09
2023-06-30T14:42:45.142Z,36.74
2023-06-30T14:45:12.822Z,36.38
2023-06-30T14:47:42.310Z,36.35
2023-06-30T14:50:09.667Z,36.61
2023-06-30T14:52:36.820Z,37.12
2023-06-30T14:55:05.206Z,37.40
2023-06-30T14:57:32.248Z,37.00
2023-06-30T14:59:59.177Z,37.03
2023-06-30T15:02:26.510Z,37.08
2023-06-30T15:04:53.662Z,36.72
2023-06-30T15:07:20.706Z,37.01
2023-06-30T15:09:47.687Z,37.54
2023-06-30T15:12:14.992Z,37.96
2023-06-30T15:14:42.011Z,38.20
2023-06-30T15:17:09.072Z,38.00
2023-06-30T15:19:36.625Z,37.59
2023-06-30T15:22:03.797Z,37.33
2023-06-30T15:24:30.736Z,37.61
2023-06-30T15:26:57.799Z,37.90
2023-06-30T15:29:24.972Z,37.98
2023-06-30T15:31:53.928Z,38.05
2023-06-30T15:34:22.424Z,38.28
2023-06-30T15:36:49.511Z,38.42
2023-06-30T15:39:16.716Z,38.60
2023-06-30T15:41:45.141Z,38.78
2023-06-30T15:44:12.300Z,38.50
2023-06-30T15:46:39.592Z,38.44
2023-06-30T15:49:06.759Z,38.09
2023-06-30T15:51:34.652Z,38.07
2023-06-30T15:54:02.245Z,38.10
2023-06-30T15:56:29.300Z,37.52
2023-06-30T15:58:56.274Z,37.16
2023-06-30T16:01:23.417Z,37.00
2023-06-30T16:03:50.593Z,36.63
2023-06-30T16:06:17.861Z,36.33
2023-06-30T16:08:44.985Z,36.30
2023-06-30T16:11:12.512Z,36.37
2023-06-30T16:13:39.695Z,36.75
2023-06-30T16:16:06.741Z,37.28
2023-06-30T16:18:33.739Z,37.78
2023-06-30T16:21:00.673Z,38.15
2023-06-30T16:23:27.576Z,38.26
2023-06-30T16:25:54.797Z,38.25
2023-06-30T16:28:22.208Z,38.44
2023-06-30T16:30:49.220Z,38.60
2023-06-30T16:33:17.376Z,38.84
2023-06-30T16:35:45.010Z,39.02
2023-06-30T16:38:12.283Z,39.69
2023-06-30T16:40:39.608Z,40.80
2023-06-30T16:43:06.577Z,41.36
2023-06-30T16:45:34.816Z,42.25
2023-06-30T16:48:01.998Z,42.55
2023-06-30T16:50:29.173Z,42.56
2023-06-30T16:52:56.097Z,43.19
2023-06-30T16:55:23.219Z,43.66
2023-06-30T16:57:50.295Z,44.01
2023-06-30T17:00:18.075Z,44.34
2023-06-30T17:02:45.135Z,44.13
2023-06-30T17:05:12.431Z,44.05
2023-06-30T17:07:39.609Z,44.33
2023-06-30T17:10:07.059Z,44.49
2023-06-30T17:12:34.993Z,44.42
2023-06-30T17:15:02.165Z,44.36
2023-06-30T17:17:29.221Z,44.18
2023-06-30T17:19:56.379Z,43.07
2023-06-30T17:22:23.352Z,42.36
2023-06-30T17:24:50.758Z,42.43
2023-06-30T17:27:17.816Z,41.84
2023-06-30T17:29:46.534Z,40.94
2023-06-30T17:32:13.473Z,40.67
2023-06-30T17:34:40.567Z,40.44
2023-06-30T17:37:08.856Z,40.12
2023-06-30T17:39:36.749Z,39.77
2023-06-30T17:42:03.907Z,39.33
2023-06-30T17:44:32.163Z,38.87
2023-06-30T17:46:59.563Z,38.54
2023-06-30T17:49:31.647Z,38.33
2023-06-30T17:52:00.382Z,38.09
2023-06-30T17:54:28.794Z,37.55
2023-06-30T17:56:56.023Z,36.95
2023-06-30T17:59:23.527Z,36.34
2023-06-30T18:01:51.308Z,35.75
2023-06-30T18:04:18.529Z,35.01
2023-06-30T18:07:23.773Z,33.91
2023-06-30T18:09:50.899Z,33.10
2023-06-30T18:12:17.862Z,32.36
2023-06-30T18:14:44.799Z,31.66
2023-06-30T18:17:12.129Z,31.08
2023-06-30T18:19:41.869Z,30.59
2023-06-30T18:22:09.223Z,30.12
2023-06-30T18:24:36.244Z,29.72
2023-06-30T18:27:03.426Z,29.39
2023-06-30T18:29:30.566Z,29.10
2023-06-30T18:32:00.498Z,28.79
2023-06-30T18:34:28.043Z,28.48
2023-06-30T18:36:54.999Z,28.21
2023-06-30T18:39:22.044Z,27.93
2023-06-30T18:41:49.266Z,27.67
2023-06-30T18:44:16.332Z,27.45
2023-06-30T18:46:43.454Z,27.26
2023-06-30T18:49:12.456Z,27.03
2023-06-30T18:51:40.459Z,26.82
2023-06-30T18:54:07.512Z,26.62
2023-06-30T18:56:34.694Z,26.38
2023-06-30T18:59:02.767Z,26.19
2023-06-30T19:01:30.143Z,26.02
2023-06-30T19:03:57.597Z,25.83
2023-06-30T19:06:26.137Z,25.63
2023-06-30T19:08:57.383Z,25.43
2023-06-30T19:11:24.504Z,25.22
2023-06-30T19:13:52.012Z,24.98
2023-06-30T19:16:19.405Z,24.78
2023-06-30T19:18:47.380Z,24.57
2023-06-30T19:21:14.987Z,24.39
2023-06-30T19:23:42.325Z,24.26
2023-06-30T19:26:10.808Z,24.23
2023-06-30T19:28:40.423Z,24.15
2023-06-30T19:31:07.437Z,24.03
2023-06-30T19:33:35.773Z,23.97
2023-06-30T19:36:03.450Z,23.98
2023-06-30T19:38:30.333Z,23.89
2023-06-30T19:40:57.797Z,23.86
2023-06-30T19:43:25.114Z,23.74
2023-06-30T19:45:52.095Z,23.71
2023-06-30T19:48:22.017Z,23.62
2023-06-30T19:50:49.253Z,23.58
2023-06-30T19:53:16.418Z,23.57
2023-06-30T19:55:43.551Z,23.50
2023-06-30T19:58:11.063Z,23.40
2023-06-30T20:00:39.197Z,23.34
2023-06-30T20:03:06.933Z,23.29
2023-06-30T20:05:34.339Z,23.20
2023-06-30T20:08:01.329Z,23.09
2023-06-30T20:10:28.302Z,23.03
2023-06-30T20:12:55.285Z,22.85
2023-06-30T20:15:22.180Z,22.80
2023-06-30T20:17:49.239Z,22.78
2023-06-30T20:20:16.473Z,22.82
2023-06-30T20:22:43.491Z,22.87
2023-06-30T20:25:11.240Z,22.80
2023-06-30T20:27:39.701Z,22.70
2023-06-30T20:30:09.156Z,22.71
2023-06-30T20:32:36.286Z,22.54
2023-06-30T20:35:03.386Z,22.44
2023-06-30T20:37:30.393Z,22.43
2023-06-30T20:39:57.669Z,22.34
2023-06-30T20:42:24.848Z,22.09
2023-06-30T20:44:51.741Z,21.94
2023-06-30T20:47:19.104Z,21.89
2023-06-30T20:49:46.359Z,21.81
2023-06-30T20:52:13.280Z,21.78
2023-06-30T20:54:40.428Z,21.67
2023-06-30T20:57:07.839Z,21.68
2023-06-30T20:59:34.775Z,21.69
2023-06-30T21:02:02.710Z,21.74
2023-06-30T21:04:29.986Z,21.76
2023-06-30T21:06:57.043Z,21.76
2023-06-30T21:09:23.988Z,21.67
2023-06-30T21:11:51.201Z,21.65
2023-06-30T21:14:21.514Z,21.55
2023-06-30T21:16:49.215Z,21.43
2023-06-30T21:19:16.963Z,21.35
2023-06-30T21:21:44.067Z,21.30
2023-06-30T21:24:11.567Z,21.27
2023-06-30T21:26:39.339Z,21.22
2023-06-30T21:29:06.538Z,21.22
2023-06-30T21:31:33.612Z,21.19
2023-06-30T21:34:00.763Z,21.01
2023-06-30T21:36:27.976Z,20.82
2023-06-30T21:38:55.044Z,20.76
2023-06-30T21:41:22.972Z,20.63
2023-06-30T21:43:49.971Z,20.57
2023-06-30T21:46:17.789Z,20.50
2023-06-30T21:48:44.843Z,20.39
2023-06-30T21:51:11.893Z,20.34
2023-06-30T21:53:38.994Z,20.26
2023-06-30T21:56:06.068Z,20.24
2023-06-30T21:58:33.367Z,20.17
2023-06-30T22:01:01.254Z,20.18
2023-06-30T22:03:28.807Z,20.18
2023-06-30T22:05:57.164Z,20.22
2023-06-30T22:08:27.249Z,20.20
2023-06-30T22:10:56.842Z,20.18
2023-06-30T22:13:23.797Z,20.19
2023-06-30T22:15:50.788Z,20.20
2023-06-30T22:18:17.893Z,20.29
2023-06-30T22:20:44.861Z,20.37
2023-06-30T22:23:11.993Z,20.42
2023-06-30T22:25:40.752Z,20.42
2023-06-30T22:28:07.893Z,20.39
2023-06-30T22:30:34.837Z,20.33
2023-06-30T22:33:01.995Z,20.28
2023-06-30T22:35:29.141Z,20.31
2023-06-30T22:37:56.185Z,20.32
2023-06-30T22:40:23.362Z,20.27
2023-06-30T22:42:50.377Z,20.17
2023-06-30T22:45:17.382Z,19.93
2023-06-30T22:47:45.034Z,19.73
2023-06-30T22:50:12.142Z,19.66
2023-06-30T22:52:42.129Z,19.67
2023-06-30T22:55:09.913Z,19.65
2023-06-30T22:57:37.196Z,19.63
2023-06-30T23:00:09.552Z,19.64
2023-06-30T23:02:37.205Z,19.53
2023-06-30T23:05:05.345Z,19.36
2023-06-30T23:07:33.271Z,19.26
2023-06-30T23:10:00.306Z,19.16
2023-06-30T23:12:27.724Z,19.07
2023-06-30T23:14:55.238Z,19.08
2023-06-30T23:17:26.402Z,19.14
2023-06-30T23:19:53.967Z,19.10
2023-06-30T23:22:21.085Z,19.04
2023-06-30T23:24:49.755Z,19.02
2023-06-30T23:27:18.324Z,19.09
2023-06-30T23:29:50.405Z,19.14
2023-06-30T23:32:21.273Z,19.20
2023-06-30T23:34:49.019Z,19.13
2023-06-30T23:37:19.989Z,19.01
2023-06-30T23:39:51.668Z,19.01
2023-06-30T23:42:19.107Z,19.05
2023-06-30T23:44:46.132Z,19.11
2023-06-30T23:47:15.606Z,19.12
2023-06-30T23:49:42.848Z,19.12
2023-06-30T23:52:10.306Z,19.14
2023-06-30T23:54:37.289Z,19.11
2023-06-30T23:57:05.165Z,19.03
2023-06-30T23:59:32.075Z,18.96
